Forside
METAR-TAF:

METAR-TAF

Lufthavne :

Munda, New Georgia, Salomonøerne

Breddekreds: 8-19-41S, længdekreds: 157-15-47E, højde: 3 m

Aktuelle vejr

Denne rapport blev lavet for 3 timer og 48 minutter siden, kl. 22:00 UTC
Vind stille
Temperatur 30°C
Fugtighed 79%
Tryk 1011 hPa
Sigt 10 km eller mere
Nogle få skyer i en højde af 1800 ft
tåge/dis

METAR: AGGM 232200Z 00000KT 9999 HZ FEW018 30/26 Q1011

Tid: 12:48 (01:48 UTC)

Vejrudsigter

Denne rapport blev lavet for 9 timer og 7 minutter siden, kl. 16:41 UTC
Foreløbig gælder fra 23 på 18 UTC til 24 på 18 UTC
Vind 7 kt fra syd
Sigt: 1009 m
Nogle få skyer i en højde af 1800 ft
Brudte skyer i en højde af 10000 ft

TAF: AGGM 231641Z 2318/2418 18007KT 9999 FEW018 BKN100 Q 1009 1011 1011 1009

Vejrobservationer og prognoser fra mere end 4000 lufthavne (METAR og TAF).

De gule og røde prikker repræsenterer de meteorologiske stationer.

Flyt musen over at se navnet på stationen.

Så klik over at se vejr observationer og prognoser.

At skifte det kort: Klik på de grønne knapper med et sort kors for at zoome ind; på den grønne knap med en bindestreg for at zoome ud; eller på de grønne pile for tilstødende kort.


METAR-TAF: